Terminal Aerodrome Forecast
Issued by NWS

Home | Current Version | Previous Version | Text Only | Print | Product List | Glossary On
Versions: 1 2 3 4 5 6 7 8 9 10 11 12 13 14 15
209
FTUS43 KJKL 162338
TAFSME
TAF
KSME 162338Z 1700/1724 21004KT P6SM FEW250
     FM170800 22004KT P6SM SCT200 WS020/26035KT
     FM171300 22006KT P6SM FEW250
     FM171700 24010KT P6SM FEW250=

USA.gov is the U.S. government's official web portal to all federal, state and local government web resources and services.